createdAt,value
2018-03-08T00:00:48.590Z,68.29
2018-03-08T00:01:49.067Z,68.03
2018-03-08T00:02:49.527Z,67.95
2018-03-08T00:03:49.992Z,67.82
2018-03-08T00:04:50.462Z,67.70
2018-03-08T00:05:50.929Z,67.59
2018-03-08T00:06:51.396Z,67.77
2018-03-08T00:07:51.863Z,67.69
2018-03-08T00:08:52.332Z,67.82
2018-03-08T00:09:52.802Z,67.81
2018-03-08T00:10:53.266Z,67.66
2018-03-08T00:11:53.735Z,67.55
2018-03-08T00:12:54.201Z,67.61
2018-03-08T00:13:54.668Z,67.55
2018-03-08T00:14:55.138Z,67.58
2018-03-08T00:15:55.607Z,67.57
2018-03-08T00:16:56.074Z,67.52
2018-03-08T00:17:56.541Z,67.80
2018-03-08T00:18:57.211Z,67.85
2018-03-08T00:19:57.475Z,67.96
2018-03-08T00:20:57.945Z,67.90
2018-03-08T00:21:58.414Z,68.10
2018-03-08T00:22:58.880Z,67.93
2018-03-08T00:23:59.346Z,67.79
2018-03-08T00:24:59.816Z,67.62
2018-03-08T00:26:00.286Z,67.44
2018-03-08T00:27:00.751Z,67.38
2018-03-08T00:28:01.218Z,67.36
2018-03-08T00:29:01.687Z,67.30
2018-03-08T00:30:02.155Z,67.13
2018-03-08T00:31:02.620Z,66.94
2018-03-08T00:32:03.089Z,66.81
2018-03-08T00:33:03.556Z,66.84
2018-03-08T00:34:04.229Z,66.81
2018-03-08T00:35:04.494Z,66.83
2018-03-08T00:36:04.960Z,66.75
2018-03-08T00:37:05.428Z,66.80
2018-03-08T00:38:05.895Z,66.80
2018-03-08T00:39:06.374Z,66.85
2018-03-08T00:40:06.835Z,66.90
2018-03-08T00:41:07.298Z,67.13
2018-03-08T00:42:07.767Z,67.77
2018-03-08T00:43:08.236Z,68.35
2018-03-08T00:44:08.699Z,68.48
2018-03-08T00:45:09.169Z,68.50
2018-03-08T00:46:09.637Z,68.78
2018-03-08T00:47:10.106Z,69.11
2018-03-08T00:48:10.571Z,69.59
2018-03-08T00:49:11.040Z,69.76
2018-03-08T00:50:11.506Z,70.14
2018-03-08T00:51:11.975Z,69.94
2018-03-08T00:52:12.442Z,69.84
2018-03-08T00:53:12.908Z,69.48
2018-03-08T00:54:13.379Z,69.23
2018-03-08T00:55:13.844Z,69.06
2018-03-08T00:56:14.310Z,68.86
2018-03-08T00:57:14.782Z,68.73
2018-03-08T00:58:15.247Z,68.68
2018-03-08T00:59:15.713Z,68.65
2018-03-08T01:00:16.181Z,68.73
2018-03-08T01:01:16.649Z,68.47
2018-03-08T01:02:17.116Z,68.42
2018-03-08T01:03:17.587Z,68.22
2018-03-08T01:04:18.051Z,68.06
2018-03-08T01:05:18.518Z,67.99
2018-03-08T01:06:18.986Z,67.78
2018-03-08T01:07:19.452Z,67.85
2018-03-08T01:08:19.920Z,68.13
2018-03-08T01:09:20.416Z,68.36
2018-03-08T01:10:20.856Z,68.91
2018-03-08T01:11:21.398Z,69.29
2018-03-08T01:12:21.789Z,69.22
2018-03-08T01:13:22.259Z,68.99
2018-03-08T01:14:22.774Z,68.79
2018-03-08T01:15:23.193Z,68.81
2018-03-08T01:16:23.659Z,68.66
2018-03-08T01:17:24.128Z,68.71
2018-03-08T01:18:24.596Z,68.55
2018-03-08T01:19:25.062Z,68.50
2018-03-08T01:20:25.528Z,68.55
2018-03-08T01:21:25.994Z,68.63
2018-03-08T01:22:26.466Z,68.55
2018-03-08T01:23:26.932Z,68.32
2018-03-08T01:24:27.399Z,68.24
2018-03-08T01:25:27.865Z,68.19
2018-03-08T01:26:28.333Z,68.19
2018-03-08T01:27:28.801Z,68.16
2018-03-08T01:28:29.268Z,68.18
2018-03-08T01:29:29.786Z,68.06
2018-03-08T01:30:30.202Z,67.83
2018-03-08T01:31:30.667Z,67.93
2018-03-08T01:32:31.137Z,67.90
2018-03-08T01:33:31.603Z,67.78
2018-03-08T01:34:32.222Z,67.59
2018-03-08T01:35:32.539Z,67.67
2018-03-08T01:36:33.004Z,67.42
2018-03-08T01:37:33.470Z,67.52
2018-03-08T01:38:33.939Z,67.43
2018-03-08T01:39:34.413Z,67.49
2018-03-08T01:40:34.876Z,67.15
2018-03-08T01:41:35.340Z,67.25
2018-03-08T01:42:35.811Z,67.30
2018-03-08T01:43:36.276Z,67.30
2018-03-08T01:44:36.792Z,67.43
2018-03-08T01:45:37.213Z,67.43
2018-03-08T01:46:37.677Z,67.32
2018-03-08T01:47:38.144Z,67.61
2018-03-08T01:48:38.612Z,67.50
2018-03-08T01:49:39.078Z,67.88
2018-03-08T01:50:39.545Z,68.34
2018-03-08T01:51:40.018Z,68.21
2018-03-08T01:52:40.480Z,68.57
2018-03-08T01:53:40.945Z,68.89
2018-03-08T01:54:41.568Z,68.79
2018-03-08T01:55:41.880Z,68.82
2018-03-08T01:56:42.347Z,69.29
2018-03-08T01:57:42.814Z,69.85
2018-03-08T01:58:43.282Z,70.65
2018-03-08T01:59:43.749Z,71.09
2018-03-08T02:00:44.217Z,70.72
2018-03-08T02:01:44.683Z,70.47
2018-03-08T02:02:45.152Z,70.09
2018-03-08T02:03:45.617Z,69.94
2018-03-08T02:04:46.084Z,69.67
2018-03-08T02:05:46.549Z,69.42
2018-03-08T02:06:47.019Z,69.24
2018-03-08T02:07:47.484Z,69.09
2018-03-08T02:08:47.954Z,68.76
2018-03-08T02:09:48.423Z,68.84
2018-03-08T02:10:48.889Z,68.97
2018-03-08T02:11:49.355Z,69.26
2018-03-08T02:12:49.821Z,69.62
2018-03-08T02:13:50.287Z,69.31
2018-03-08T02:14:50.756Z,69.11
2018-03-08T02:15:51.221Z,69.16
2018-03-08T02:16:51.690Z,68.93
2018-03-08T02:17:52.154Z,68.68
2018-03-08T02:18:52.623Z,68.61
2018-03-08T02:19:53.090Z,68.45
2018-03-08T02:20:53.558Z,68.38
2018-03-08T02:21:54.023Z,68.20
2018-03-08T02:22:54.493Z,68.04
2018-03-08T02:23:54.958Z,68.01
2018-03-08T02:24:55.425Z,68.01
2018-03-08T02:25:55.892Z,67.89
2018-03-08T02:26:56.360Z,67.83
2018-03-08T02:27:56.825Z,67.68
2018-03-08T02:28:57.294Z,67.68
2018-03-08T02:29:57.758Z,67.78
2018-03-08T02:30:58.227Z,67.55
2018-03-08T02:31:58.692Z,67.75
2018-03-08T02:32:59.159Z,67.57
2018-03-08T02:33:59.632Z,67.49
2018-03-08T02:35:00.146Z,67.49
2018-03-08T02:36:00.560Z,67.39
2018-03-08T02:37:01.028Z,67.29
2018-03-08T02:38:01.496Z,67.28
2018-03-08T02:39:01.962Z,67.15
2018-03-08T02:40:02.583Z,67.10
2018-03-08T02:41:02.896Z,67.05
2018-03-08T02:42:03.361Z,67.07
2018-03-08T02:43:03.830Z,67.02
2018-03-08T02:44:04.300Z,66.99
2018-03-08T02:45:04.774Z,67.14
2018-03-08T02:46:05.228Z,67.14
2018-03-08T02:47:05.699Z,67.06
2018-03-08T02:48:06.163Z,67.24
2018-03-08T02:49:06.631Z,67.52
2018-03-08T02:50:07.096Z,67.52
2018-03-08T02:51:07.566Z,67.70
2018-03-08T02:52:08.030Z,67.70
2018-03-08T02:53:08.496Z,67.54
2018-03-08T02:54:08.964Z,67.67
2018-03-08T02:55:09.433Z,68.05
2018-03-08T02:56:09.897Z,67.92
2018-03-08T02:57:10.362Z,67.82
2018-03-08T02:58:10.830Z,67.87
2018-03-08T02:59:11.300Z,67.95
2018-03-08T03:00:11.764Z,68.05
2018-03-08T03:01:12.231Z,67.97
2018-03-08T03:02:12.696Z,67.82
2018-03-08T03:03:13.164Z,67.99
2018-03-08T03:04:13.634Z,68.37
2018-03-08T03:05:14.148Z,68.88
2018-03-08T03:06:14.564Z,68.65
2018-03-08T03:07:15.030Z,68.63
2018-03-08T03:08:15.498Z,68.70
2018-03-08T03:09:15.970Z,68.75
2018-03-08T03:10:16.480Z,68.68
2018-03-08T03:11:16.901Z,68.40
2018-03-08T03:12:17.364Z,68.50
2018-03-08T03:13:17.831Z,68.24
2018-03-08T03:14:18.297Z,68.52
2018-03-08T03:15:18.798Z,68.55
2018-03-08T03:16:19.231Z,68.90
2018-03-08T03:17:19.698Z,69.00
2018-03-08T03:18:20.164Z,68.87
2018-03-08T03:19:20.632Z,69.13
2018-03-08T03:20:21.098Z,69.15
2018-03-08T03:21:21.562Z,69.20
2018-03-08T03:22:22.030Z,69.20
2018-03-08T03:23:22.497Z,69.18
2018-03-08T03:24:22.964Z,69.57
2018-03-08T03:25:23.480Z,69.88
2018-03-08T03:26:23.897Z,70.40
2018-03-08T03:27:24.363Z,70.77
2018-03-08T03:28:24.829Z,70.82
2018-03-08T03:29:25.298Z,70.99
2018-03-08T03:30:25.764Z,71.09
2018-03-08T03:31:26.233Z,71.61
2018-03-08T03:32:26.698Z,71.83
2018-03-08T03:33:27.164Z,71.73
2018-03-08T03:34:27.630Z,71.63
2018-03-08T03:35:28.147Z,71.76
2018-03-08T03:36:28.564Z,71.74
2018-03-08T03:37:29.029Z,71.63
2018-03-08T03:38:29.495Z,71.73
2018-03-08T03:39:29.964Z,71.86
2018-03-08T03:40:30.633Z,72.15
2018-03-08T03:41:30.896Z,72.28
2018-03-08T03:42:31.365Z,72.47
2018-03-08T03:43:31.829Z,72.71
2018-03-08T03:44:32.298Z,72.86
2018-03-08T03:45:32.761Z,73.05
2018-03-08T03:46:33.231Z,73.20
2018-03-08T03:47:33.698Z,73.20
2018-03-08T03:48:34.163Z,72.86
2018-03-08T03:49:34.629Z,72.47
2018-03-08T03:50:35.095Z,72.08
2018-03-08T03:51:35.561Z,71.98
2018-03-08T03:52:36.036Z,72.01
2018-03-08T03:53:36.494Z,71.89
2018-03-08T03:54:36.963Z,71.61
2018-03-08T03:55:37.429Z,71.46
2018-03-08T03:56:37.898Z,71.64
2018-03-08T03:57:38.365Z,71.61
2018-03-08T03:58:38.827Z,71.41
2018-03-08T03:59:39.296Z,71.14
2018-03-08T04:00:39.811Z,71.24
2018-03-08T04:01:40.229Z,71.68
2018-03-08T04:02:40.698Z,72.25
2018-03-08T04:03:41.161Z,72.56
2018-03-08T04:04:41.627Z,72.15
2018-03-08T04:05:42.098Z,71.93
2018-03-08T04:06:42.561Z,71.63
2018-03-08T04:07:43.030Z,71.63
2018-03-08T04:08:43.496Z,71.46
2018-03-08T04:09:43.959Z,71.31
2018-03-08T04:10:44.478Z,70.99
2018-03-08T04:11:44.893Z,70.89
2018-03-08T04:12:45.360Z,70.62
2018-03-08T04:13:45.826Z,70.46
2018-03-08T04:14:46.293Z,70.54
2018-03-08T04:15:46.761Z,70.21
2018-03-08T04:16:47.228Z,70.19
2018-03-08T04:17:47.693Z,70.21
2018-03-08T04:18:48.161Z,70.46
2018-03-08T04:19:48.626Z,70.66
2018-03-08T04:20:49.144Z,71.01
2018-03-08T04:21:49.560Z,71.47
2018-03-08T04:22:50.026Z,71.57
2018-03-08T04:23:50.494Z,71.47
2018-03-08T04:24:50.960Z,71.45
2018-03-08T04:25:51.426Z,71.27
2018-03-08T04:26:51.893Z,71.08
2018-03-08T04:27:52.360Z,70.91
2018-03-08T04:28:52.828Z,70.73
2018-03-08T04:29:53.291Z,70.53
2018-03-08T04:30:53.761Z,70.33
2018-03-08T04:31:54.227Z,70.11
2018-03-08T04:32:54.695Z,70.01
2018-03-08T04:33:55.162Z,69.78
2018-03-08T04:34:55.627Z,69.83
2018-03-08T04:35:56.141Z,69.95
2018-03-08T04:36:56.560Z,70.33
2018-03-08T04:37:57.024Z,70.97
2018-03-08T04:38:57.491Z,71.22
2018-03-08T04:39:57.957Z,71.86
2018-03-08T04:40:58.425Z,71.90
2018-03-08T04:41:58.889Z,72.14
2018-03-08T04:42:59.359Z,72.53
2018-03-08T04:43:59.823Z,72.83
2018-03-08T04:45:00.290Z,73.12
2018-03-08T04:46:00.757Z,73.19
2018-03-08T04:47:01.224Z,73.36
2018-03-08T04:48:01.691Z,73.41
2018-03-08T04:49:02.159Z,73.92
2018-03-08T04:50:02.623Z,74.13
2018-03-08T04:51:03.090Z,74.30
2018-03-08T04:52:03.557Z,74.13
2018-03-08T04:53:04.021Z,74.14
2018-03-08T04:54:04.487Z,74.30
2018-03-08T04:55:04.956Z,74.42
2018-03-08T04:56:05.422Z,74.45
2018-03-08T04:57:05.887Z,74.35
2018-03-08T04:58:06.352Z,74.28
2018-03-08T04:59:06.822Z,74.23
2018-03-08T05:00:07.286Z,74.35
2018-03-08T05:01:07.834Z,74.42
2018-03-08T05:02:08.221Z,74.73
2018-03-08T05:03:08.686Z,74.57
2018-03-08T05:04:09.153Z,74.73
2018-03-08T05:05:09.621Z,75.09
2018-03-08T05:06:10.091Z,75.21
2018-03-08T05:07:10.552Z,75.00
2018-03-08T05:08:11.019Z,74.86
2018-03-08T05:09:11.486Z,74.64
2018-03-08T05:10:11.953Z,74.57
2018-03-08T05:11:12.470Z,74.23
2018-03-08T05:12:12.884Z,74.30
2018-03-08T05:13:13.351Z,74.02
2018-03-08T05:14:13.817Z,73.66
2018-03-08T05:15:14.286Z,73.76
2018-03-08T05:16:14.752Z,73.78
2018-03-08T05:17:15.219Z,73.93
2018-03-08T05:18:15.683Z,73.80
2018-03-08T05:19:16.149Z,73.56
2018-03-08T05:20:16.619Z,73.46
2018-03-08T05:21:17.085Z,73.56
2018-03-08T05:22:17.553Z,73.75
2018-03-08T05:23:18.017Z,74.01
2018-03-08T05:24:18.484Z,74.23
2018-03-08T05:25:18.950Z,74.52
2018-03-08T05:26:19.420Z,74.78
2018-03-08T05:27:19.884Z,74.83
2018-03-08T05:28:20.349Z,74.95
2018-03-08T05:29:20.815Z,75.23
2018-03-08T05:30:21.282Z,75.28
2018-03-08T05:31:21.749Z,75.42
2018-03-08T05:32:22.216Z,75.64
2018-03-08T05:33:22.683Z,75.80
2018-03-08T05:34:23.150Z,76.06
2018-03-08T05:35:23.614Z,76.06
2018-03-08T05:36:24.084Z,76.13
2018-03-08T05:37:24.547Z,76.30
2018-03-08T05:38:25.016Z,76.34
2018-03-08T05:39:25.481Z,76.39
2018-03-08T05:40:25.950Z,76.46
2018-03-08T05:41:26.464Z,76.65
2018-03-08T05:42:26.886Z,76.81
2018-03-08T05:43:27.348Z,76.88
2018-03-08T05:44:27.815Z,76.95
2018-03-08T05:45:28.283Z,76.95
2018-03-08T05:46:28.747Z,77.07
2018-03-08T05:47:29.215Z,77.17
2018-03-08T05:48:29.681Z,77.19
2018-03-08T05:49:30.148Z,77.38
2018-03-08T05:50:30.612Z,77.47
2018-03-08T05:51:31.130Z,77.40
2018-03-08T05:52:31.546Z,77.40
2018-03-08T05:53:32.014Z,77.31
2018-03-08T05:54:32.481Z,77.38
2018-03-08T05:55:32.946Z,77.48
2018-03-08T05:56:33.414Z,77.45
2018-03-08T05:57:33.881Z,77.52
2018-03-08T05:58:34.351Z,77.55
2018-03-08T05:59:34.814Z,77.59
2018-03-08T06:00:35.280Z,77.55
2018-03-08T06:01:35.798Z,77.45
2018-03-08T06:02:36.212Z,77.46
2018-03-08T06:03:36.681Z,77.46
2018-03-08T06:04:37.147Z,77.63
2018-03-08T06:05:37.615Z,77.67
2018-03-08T06:06:38.079Z,77.60
2018-03-08T06:07:38.570Z,77.65
2018-03-08T06:08:39.013Z,77.60
2018-03-08T06:09:39.483Z,77.56
2018-03-08T06:10:39.948Z,77.63
2018-03-08T06:11:40.464Z,77.47
2018-03-08T06:12:40.881Z,77.61
2018-03-08T06:13:41.350Z,77.61
2018-03-08T06:14:41.814Z,77.63
2018-03-08T06:15:42.280Z,77.63
2018-03-08T06:16:42.748Z,77.73
2018-03-08T06:17:43.215Z,77.91
2018-03-08T06:18:43.683Z,77.80
2018-03-08T06:19:44.148Z,77.89
2018-03-08T06:20:44.618Z,77.85
2018-03-08T06:21:45.135Z,77.85
2018-03-08T06:22:45.552Z,77.85
2018-03-08T06:23:46.018Z,77.85
2018-03-08T06:24:46.484Z,78.02
2018-03-08T06:25:46.951Z,78.04
2018-03-08T06:26:47.618Z,78.14
2018-03-08T06:27:47.889Z,78.14
2018-03-08T06:28:48.350Z,78.18
2018-03-08T06:29:48.818Z,78.23
2018-03-08T06:30:49.285Z,78.17
2018-03-08T06:31:49.800Z,78.23
2018-03-08T06:32:50.221Z,78.35
2018-03-08T06:33:50.685Z,78.38
2018-03-08T06:34:51.154Z,78.33
2018-03-08T06:35:51.617Z,78.31
2018-03-08T06:36:52.134Z,78.50
2018-03-08T06:37:52.551Z,78.57
2018-03-08T06:38:53.019Z,78.48
2018-03-08T06:39:53.485Z,78.53
2018-03-08T06:40:53.954Z,78.65
2018-03-08T06:41:54.422Z,78.53
2018-03-08T06:42:54.886Z,78.58
2018-03-08T06:43:55.353Z,78.54
2018-03-08T06:44:55.821Z,78.56
2018-03-08T06:45:56.286Z,78.54
2018-03-08T06:46:56.958Z,78.50
2018-03-08T06:47:57.220Z,78.59
2018-03-08T06:48:57.690Z,78.57
2018-03-08T06:49:58.155Z,78.57
2018-03-08T06:50:58.623Z,78.58
2018-03-08T06:51:59.168Z,78.60
2018-03-08T06:52:59.558Z,78.70
2018-03-08T06:54:00.027Z,78.65
2018-03-08T06:55:00.490Z,78.56
2018-03-08T06:56:00.957Z,78.52
2018-03-08T06:57:01.426Z,78.45
2018-03-08T06:58:01.889Z,78.54
2018-03-08T06:59:02.355Z,78.50
2018-03-08T07:00:02.824Z,78.57
2018-03-08T07:01:03.294Z,78.49
2018-03-08T07:02:03.760Z,78.60
2018-03-08T07:03:04.227Z,78.58
2018-03-08T07:04:04.696Z,78.54
2018-03-08T07:05:05.164Z,78.54
2018-03-08T07:06:05.625Z,78.59
2018-03-08T07:07:06.092Z,78.68
2018-03-08T07:08:06.559Z,78.82
2018-03-08T07:09:07.030Z,78.78
2018-03-08T07:10:07.496Z,78.78
2018-03-08T07:11:07.961Z,78.74
2018-03-08T07:12:08.479Z,78.77
2018-03-08T07:13:08.901Z,78.75
2018-03-08T07:14:09.362Z,78.75
2018-03-08T07:15:09.832Z,78.69
2018-03-08T07:16:10.305Z,78.62
2018-03-08T07:17:10.766Z,78.63
2018-03-08T07:18:11.233Z,78.70
2018-03-08T07:19:11.699Z,78.68
2018-03-08T07:20:12.166Z,78.69
2018-03-08T07:21:12.635Z,78.62
2018-03-08T07:22:13.100Z,78.74
2018-03-08T07:23:13.569Z,78.66
2018-03-08T07:24:14.034Z,78.69
2018-03-08T07:25:14.503Z,78.66
2018-03-08T07:26:14.969Z,78.67
2018-03-08T07:27:15.436Z,78.72
2018-03-08T07:28:15.905Z,78.70
2018-03-08T07:29:16.371Z,78.64
2018-03-08T07:30:16.839Z,78.62
2018-03-08T07:31:17.305Z,78.58
2018-03-08T07:32:17.773Z,78.56
2018-03-08T07:33:18.242Z,78.57
2018-03-08T07:34:18.708Z,78.62
2018-03-08T07:35:19.177Z,78.58
2018-03-08T07:36:19.643Z,78.52
2018-03-08T07:37:20.113Z,78.41
2018-03-08T07:38:20.578Z,78.27
2018-03-08T07:39:21.047Z,78.38
2018-03-08T07:40:21.513Z,78.31
2018-03-08T07:41:21.980Z,78.27
2018-03-08T07:42:22.449Z,78.21
2018-03-08T07:43:22.915Z,78.18
2018-03-08T07:44:23.383Z,78.09
2018-03-08T07:45:23.850Z,78.05
2018-03-08T07:46:24.319Z,77.80
2018-03-08T07:47:24.837Z,77.69
2018-03-08T07:48:25.254Z,77.49
2018-03-08T07:49:25.730Z,77.26
2018-03-08T07:50:26.190Z,77.13
2018-03-08T07:51:26.668Z,77.09
2018-03-08T07:52:27.125Z,76.98
2018-03-08T07:53:27.595Z,76.85
2018-03-08T07:54:28.062Z,76.72
2018-03-08T07:55:28.531Z,76.68
2018-03-08T07:56:28.997Z,76.54
2018-03-08T07:57:29.466Z,76.46
2018-03-08T07:58:29.934Z,76.37
2018-03-08T07:59:30.402Z,76.27
2018-03-08T08:00:30.870Z,76.24
2018-03-08T08:01:31.341Z,76.20
2018-03-08T08:02:31.805Z,76.12
2018-03-08T08:03:32.274Z,76.07
2018-03-08T08:04:32.743Z,76.04
2018-03-08T08:05:33.210Z,75.97
2018-03-08T08:06:33.679Z,75.86
2018-03-08T08:07:34.151Z,75.84
2018-03-08T08:08:34.616Z,75.80
2018-03-08T08:09:35.082Z,75.83
2018-03-08T08:10:35.551Z,75.75
2018-03-08T08:11:36.021Z,75.58
2018-03-08T08:12:36.491Z,75.59
2018-03-08T08:13:36.959Z,75.57
2018-03-08T08:14:37.428Z,75.51
2018-03-08T08:15:37.894Z,75.49
2018-03-08T08:16:38.363Z,75.45
2018-03-08T08:17:38.831Z,75.38
2018-03-08T08:18:39.304Z,75.37
2018-03-08T08:19:39.768Z,75.20
2018-03-08T08:20:40.237Z,75.19
2018-03-08T08:21:40.706Z,75.09
2018-03-08T08:22:41.177Z,75.06
2018-03-08T08:23:41.643Z,75.08
2018-03-08T08:24:42.113Z,75.07
2018-03-08T08:25:42.582Z,75.07
2018-03-08T08:26:43.062Z,75.00
2018-03-08T08:27:43.519Z,75.05
2018-03-08T08:28:43.986Z,74.99
2018-03-08T08:29:44.460Z,74.90
2018-03-08T08:30:44.926Z,74.95
2018-03-08T08:31:45.393Z,75.05
2018-03-08T08:32:45.902Z,75.04
2018-03-08T08:33:46.331Z,75.08
2018-03-08T08:34:46.799Z,75.12
2018-03-08T08:35:47.269Z,75.23
2018-03-08T08:36:47.740Z,75.32
2018-03-08T08:37:48.207Z,75.36
2018-03-08T08:38:48.676Z,75.47
2018-03-08T08:39:49.145Z,75.56
2018-03-08T08:40:49.614Z,75.67
2018-03-08T08:41:50.082Z,75.67
2018-03-08T08:42:50.554Z,75.81
2018-03-08T08:43:51.021Z,75.83
2018-03-08T08:44:51.495Z,75.85
2018-03-08T08:45:51.961Z,75.88
2018-03-08T08:46:52.431Z,75.88
2018-03-08T08:47:52.899Z,75.90
2018-03-08T08:48:53.370Z,76.05
2018-03-08T08:49:53.885Z,75.86
2018-03-08T08:50:54.310Z,75.75
2018-03-08T08:51:54.780Z,75.75
2018-03-08T08:52:55.248Z,75.78
2018-03-08T08:53:55.720Z,75.83
2018-03-08T08:54:56.190Z,75.92
2018-03-08T08:55:56.663Z,75.80
2018-03-08T08:56:57.130Z,75.68
2018-03-08T08:57:57.601Z,75.69
2018-03-08T08:58:58.070Z,75.57
2018-03-08T08:59:58.541Z,75.25
2018-03-08T09:00:59.020Z,75.01
2018-03-08T09:01:59.824Z,74.97
2018-03-08T09:02:59.955Z,74.77
2018-03-08T09:04:00.426Z,74.33
2018-03-08T09:05:00.893Z,74.16
2018-03-08T09:06:01.370Z,74.08
2018-03-08T09:07:01.839Z,73.84
2018-03-08T09:08:02.359Z,73.84
2018-03-08T09:09:02.779Z,73.59
2018-03-08T09:10:03.253Z,73.31
2018-03-08T09:11:03.721Z,73.10
2018-03-08T09:12:04.196Z,72.85
2018-03-08T09:13:04.864Z,72.55
2018-03-08T09:14:05.134Z,72.50
2018-03-08T09:15:05.608Z,72.01
2018-03-08T09:16:06.079Z,71.83
2018-03-08T09:17:06.550Z,71.49
2018-03-08T09:18:07.071Z,71.61
2018-03-08T09:19:07.493Z,71.20
2018-03-08T09:20:07.963Z,71.00
2018-03-08T09:21:08.438Z,70.78
2018-03-08T09:22:08.907Z,70.75
2018-03-08T09:23:09.429Z,70.54
2018-03-08T09:24:09.848Z,69.78
2018-03-08T09:25:10.322Z,69.65
2018-03-08T09:26:10.794Z,69.17
2018-03-08T09:27:11.268Z,68.80
2018-03-08T09:28:11.788Z,68.34
2018-03-08T09:29:12.213Z,67.67
2018-03-08T09:30:12.682Z,67.32
2018-03-08T09:31:13.154Z,67.18
2018-03-08T09:32:13.626Z,66.70
2018-03-08T09:33:14.098Z,66.13
2018-03-08T09:34:14.572Z,65.64
2018-03-08T09:35:15.043Z,65.22
2018-03-08T09:36:15.516Z,64.80
2018-03-08T09:37:15.989Z,64.36
2018-03-08T09:38:16.615Z,63.91
2018-03-08T09:39:16.934Z,63.58
2018-03-08T09:40:17.406Z,62.99
2018-03-08T09:41:17.879Z,62.59
2018-03-08T09:42:18.353Z,62.08
2018-03-08T09:43:18.825Z,61.66
2018-03-08T09:44:19.299Z,61.31
2018-03-08T09:45:19.770Z,60.91
2018-03-08T09:46:20.245Z,60.45
2018-03-08T09:47:20.721Z,60.04
2018-03-08T09:48:21.241Z,59.52
2018-03-08T09:49:21.662Z,59.17
2018-03-08T09:50:22.137Z,58.87
2018-03-08T09:51:22.610Z,58.49
2018-03-08T09:52:23.083Z,57.93
2018-03-08T09:53:23.556Z,57.83
2018-03-08T09:54:24.032Z,57.36
2018-03-08T09:55:24.505Z,56.82
2018-03-08T09:56:24.978Z,56.69
2018-03-08T09:57:25.450Z,56.13
2018-03-08T09:58:25.923Z,56.03
2018-03-08T09:59:26.398Z,55.75
2018-03-08T10:00:26.872Z,55.24
2018-03-08T10:01:27.344Z,55.07
2018-03-08T10:02:27.819Z,54.74
2018-03-08T10:03:28.325Z,54.25
2018-03-08T10:04:28.765Z,54.03
2018-03-08T10:05:29.252Z,53.54
2018-03-08T10:06:29.716Z,53.43
2018-03-08T10:07:30.188Z,53.09
2018-03-08T10:08:30.662Z,52.74
2018-03-08T10:09:31.137Z,52.43
2018-03-08T10:10:31.609Z,52.11
2018-03-08T10:11:32.084Z,51.71
2018-03-08T10:12:32.557Z,51.41
2018-03-08T10:13:33.084Z,50.91
2018-03-08T10:14:33.507Z,50.84
2018-03-08T10:15:33.983Z,50.12
2018-03-08T10:16:34.454Z,49.98
2018-03-08T10:17:34.935Z,49.65
2018-03-08T10:18:35.448Z,49.39
2018-03-08T10:19:35.878Z,49.01
2018-03-08T10:20:36.353Z,48.90
2018-03-08T10:21:49.856Z,48.48
2018-03-08T10:22:37.305Z,48.30
2018-03-08T10:23:37.778Z,48.00
2018-03-08T10:24:38.252Z,47.68
2018-03-08T10:25:38.725Z,47.16
2018-03-08T10:26:39.200Z,47.05
2018-03-08T10:27:39.676Z,46.56
2018-03-08T10:28:40.151Z,46.60
2018-03-08T10:29:40.626Z,46.02
2018-03-08T10:30:41.101Z,45.65
2018-03-08T10:31:41.579Z,45.54
2018-03-08T10:32:42.052Z,45.21
2018-03-08T10:33:42.525Z,44.84
2018-03-08T10:34:43.033Z,44.57
2018-03-08T10:35:43.477Z,44.35
2018-03-08T10:36:43.950Z,44.14
2018-03-08T13:00:16.900Z,48.78
2018-03-08T13:01:17.353Z,48.59
2018-03-08T13:02:17.827Z,48.86
2018-03-08T13:03:18.501Z,48.98
2018-03-08T13:04:18.786Z,48.95
2018-03-08T13:05:19.241Z,48.86
2018-03-08T13:06:19.714Z,49.01
2018-03-08T13:07:20.187Z,49.01
2018-03-08T13:08:20.659Z,49.09
2018-03-08T13:09:21.138Z,49.25
2018-03-08T13:10:21.608Z,49.34
2018-03-08T13:11:22.079Z,49.52
2018-03-08T13:12:22.552Z,49.64
2018-03-08T13:13:23.025Z,49.78
2018-03-08T13:14:23.500Z,49.81
2018-03-08T13:15:24.176Z,49.96
2018-03-08T13:16:24.448Z,50.02
2018-03-08T13:17:24.919Z,50.05
2018-03-08T13:18:25.395Z,50.23
2018-03-08T13:19:25.868Z,50.34
2018-03-08T13:20:26.344Z,50.46
2018-03-08T13:21:26.815Z,50.61
2018-03-08T13:22:27.290Z,50.82
2018-03-08T13:23:27.763Z,50.58
2018-03-08T13:24:28.239Z,50.78
2018-03-08T13:25:28.713Z,50.93
2018-03-08T13:26:29.187Z,50.75
2018-03-08T13:27:29.664Z,51.05
2018-03-08T13:28:30.338Z,51.26
2018-03-08T13:29:30.610Z,51.23
2018-03-08T13:30:31.086Z,51.29
2018-03-08T13:31:31.562Z,51.16
2018-03-08T13:32:32.035Z,51.34
2018-03-08T13:33:32.511Z,51.46
2018-03-08T13:34:32.988Z,51.67
2018-03-08T13:35:33.465Z,51.58
2018-03-08T13:36:33.934Z,51.57
2018-03-08T13:37:34.411Z,51.99
2018-03-08T13:38:34.888Z,51.99
2018-03-08T13:39:35.362Z,51.93
2018-03-08T13:40:35.835Z,51.90
2018-03-08T13:41:36.314Z,51.78
2018-03-08T13:42:36.788Z,52.05
2018-03-08T13:43:37.492Z,52.07
2018-03-08T13:44:37.736Z,52.22
2018-03-08T13:45:38.214Z,52.25
2018-03-08T13:46:38.692Z,52.13
2018-03-08T13:47:39.162Z,52.10
2018-03-08T13:48:39.638Z,52.15
2018-03-08T13:49:40.113Z,52.45
2018-03-08T13:50:40.587Z,52.42
2018-03-08T13:51:41.065Z,52.39
2018-03-08T13:52:41.534Z,52.38
2018-03-08T13:53:42.012Z,52.38
2018-03-08T13:54:42.484Z,52.35
2018-03-08T13:55:43.007Z,52.50
2018-03-08T13:56:43.431Z,52.62
2018-03-08T13:57:43.902Z,52.38
2018-03-08T13:58:44.375Z,52.61
2018-03-08T13:59:44.850Z,52.79
2018-03-08T14:00:45.321Z,52.73
2018-03-08T14:01:45.792Z,52.75
2018-03-08T14:02:46.267Z,52.96
2018-03-08T14:03:46.737Z,52.96
2018-03-08T14:04:47.210Z,52.95
2018-03-08T14:05:47.680Z,52.95
2018-03-08T14:06:48.151Z,52.94
2018-03-08T14:07:48.623Z,53.06
2018-03-08T14:08:49.093Z,53.17
2018-03-08T14:09:49.563Z,53.29
2018-03-08T14:10:50.087Z,53.32
2018-03-08T14:11:50.507Z,53.20
2018-03-08T14:12:50.976Z,53.37
2018-03-08T14:13:51.454Z,53.34
2018-03-08T14:14:51.919Z,53.43
2018-03-08T14:15:52.443Z,53.34
2018-03-08T14:16:52.863Z,53.42
2018-03-08T14:17:53.333Z,53.48
2018-03-08T14:18:54.008Z,53.54
2018-03-08T14:19:54.275Z,53.56
2018-03-08T14:20:54.746Z,53.59
2018-03-08T14:21:55.217Z,53.56
2018-03-08T14:22:55.687Z,53.59
2018-03-08T14:23:56.160Z,53.67
2018-03-08T14:24:56.631Z,53.70
2018-03-08T14:25:57.153Z,53.70
2018-03-08T14:26:57.607Z,53.73
2018-03-08T14:27:58.045Z,53.69
2018-03-08T14:28:58.518Z,53.72
2018-03-08T14:29:58.990Z,53.87
2018-03-08T14:30:59.460Z,53.90
2018-03-08T14:31:59.971Z,53.95
2018-03-08T14:33:00.405Z,53.95
2018-03-08T14:34:00.875Z,53.95
2018-03-08T14:35:01.351Z,54.00
2018-03-08T14:36:01.893Z,54.03
2018-03-08T14:37:02.294Z,54.06
2018-03-08T14:38:02.768Z,54.14
2018-03-08T14:39:03.241Z,54.17
2018-03-08T14:40:03.714Z,54.20
2018-03-08T14:41:04.185Z,54.28
2018-03-08T14:42:04.677Z,54.27
2018-03-08T14:43:05.132Z,54.33
2018-03-08T14:44:05.606Z,54.47
2018-03-08T14:45:06.079Z,54.56
2018-03-08T14:46:06.553Z,54.58
2018-03-08T14:47:07.028Z,54.75
2018-03-08T14:48:07.500Z,54.81
2018-03-08T14:49:07.971Z,54.92
2018-03-08T14:50:08.447Z,54.95
2018-03-08T14:51:08.919Z,55.00
2018-03-08T14:52:09.403Z,55.05
2018-03-08T14:53:09.866Z,55.05
2018-03-08T14:54:10.342Z,55.10
2018-03-08T14:55:10.817Z,55.16
2018-03-08T14:56:11.343Z,55.24
2018-03-08T14:57:11.764Z,55.26
2018-03-08T14:58:12.238Z,55.32
2018-03-08T14:59:12.713Z,55.37
2018-03-08T15:00:13.193Z,55.43
2018-03-08T15:01:13.663Z,55.45
2018-03-08T15:02:14.137Z,55.51
2018-03-08T15:03:14.612Z,55.59
2018-03-08T15:04:15.088Z,55.64
2018-03-08T15:05:15.561Z,55.64
2018-03-08T15:06:16.036Z,55.70
2018-03-08T15:07:16.510Z,55.72
2018-03-08T15:08:16.985Z,55.75
2018-03-08T15:09:17.459Z,55.80
2018-03-08T15:10:18.138Z,55.85
2018-03-08T15:11:18.411Z,55.88
2018-03-08T15:12:18.887Z,55.96
2018-03-08T15:13:19.700Z,56.05
2018-03-08T15:14:19.835Z,56.07
2018-03-08T15:15:20.313Z,56.16
2018-03-08T15:16:20.833Z,56.21
2018-03-08T15:17:21.259Z,56.15
2018-03-08T15:18:21.736Z,56.18
2018-03-08T15:19:22.210Z,56.20
2018-03-08T15:20:22.688Z,56.14
2018-03-08T15:21:23.158Z,56.12